Time;durP1;ratioP1;P1;durP2;ratioP2;P2;SDS_P1;SDS_P2;PMS_P1;PMS_P2;Temp;Humidity;BMP_temperature;BMP_pressure;BME280_temperature;BME280_humidity;BME280_pressure;Samples;Min_cycle;Max_cycle;Signal;HPM_P1;HPM_P2
2023/03/17 00:01:49;;;;;;;8.70;5.97;;;11.80;1.00;;;;;;5050224;28;20112;-60
2023/03/17 00:04:17;;;;;;;8.23;5.43;;;11.80;1.00;;;;;;5045389;28;20022;-61
2023/03/17 00:06:44;;;;;;;9.33;5.90;;;11.70;1.00;;;;;;5046816;28;20454;-60
2023/03/17 00:09:14;;;;;;;7.20;5.25;;;11.70;1.00;;;;;;5052036;28;20544;-60
2023/03/17 00:11:40;;;;;;;7.90;5.27;;;11.70;1.00;;;;;;5049841;28;20032;-60
2023/03/17 00:14:06;;;;;;;9.57;6.07;;;11.80;1.00;;;;;;5048572;28;20041;-61
2023/03/17 00:16:37;;;;;;;8.60;5.47;;;11.80;1.00;;;;;;5048525;28;20041;-61
2023/03/17 00:19:03;;;;;;;10.33;6.33;;;11.70;1.00;;;;;;5052286;28;20025;-61
2023/03/17 00:21:31;;;;;;;10.32;5.90;;;11.70;1.00;;;;;;5053570;28;20501;-60
2023/03/17 00:23:58;;;;;;;8.82;5.85;;;11.70;1.00;;;;;;5037510;28;20037;-60
2023/03/17 00:26:24;;;;;;;8.10;6.03;;;11.70;1.00;;;;;;5049323;28;20033;-61
2023/03/17 00:28:51;;;;;;;9.40;5.47;;;11.70;1.00;;;;;;5053788;28;20033;-61
2023/03/17 00:31:19;;;;;;;6.80;5.27;;;11.60;1.00;;;;;;5052379;28;20064;-61
2023/03/17 00:33:47;;;;;;;9.70;5.70;;;11.60;1.00;;;;;;5039581;28;20030;-60
2023/03/17 00:36:17;;;;;;;9.30;5.00;;;11.70;1.00;;;;;;5052347;28;20039;-61
2023/03/17 00:38:44;;;;;;;11.65;5.40;;;11.70;1.00;;;;;;5052923;28;20029;-61
2023/03/17 00:41:11;;;;;;;8.15;5.30;;;11.60;1.00;;;;;;5040244;28;20036;-61
2023/03/17 00:43:37;;;;;;;8.13;5.50;;;11.60;1.00;;;;;;5044995;28;20060;-60
2023/03/17 00:46:14;;;;;;;6.73;5.03;;;11.60;1.00;;;;;;5050414;28;20025;-61
2023/03/17 00:48:41;;;;;;;9.40;5.78;;;11.60;1.00;;;;;;5053532;28;20047;-61
2023/03/17 00:51:07;;;;;;;7.07;5.23;;;11.50;1.00;;;;;;5052233;28;20510;-61
2023/03/17 00:53:33;;;;;;;7.53;5.33;;;11.50;1.00;;;;;;5053266;28;20116;-61
2023/03/17 00:55:59;;;;;;;7.43;4.67;;;11.50;1.00;;;;;;5048455;28;20032;-60
2023/03/17 00:58:34;;;;;;;6.60;4.70;;;11.50;1.00;;;;;;5053501;28;20040;-61
2023/03/17 01:01:01;;;;;;;7.70;4.40;;;11.40;1.00;;;;;;5051416;28;20087;-61
2023/03/17 01:03:27;;;;;;;6.83;5.20;;;11.40;1.00;;;;;;5039066;28;20108;-61
2023/03/17 01:05:55;;;;;;;8.33;4.77;;;11.50;1.00;;;;;;5049755;28;20375;-61
2023/03/17 01:08:22;;;;;;;8.60;4.77;;;11.50;1.00;;;;;;5039276;28;20064;-61
2023/03/17 01:10:48;;;;;;;6.07;4.43;;;11.50;1.00;;;;;;5043166;28;20029;-61
2023/03/17 01:13:14;;;;;;;6.53;4.85;;;11.40;1.00;;;;;;5039156;28;20040;-61
2023/03/17 01:15:45;;;;;;;6.00;4.43;;;11.40;1.00;;;;;;5046865;28;20029;-61
2023/03/17 01:18:14;;;;;;;7.03;4.70;;;11.40;1.00;;;;;;5043900;28;20037;-61
2023/03/17 01:20:41;;;;;;;5.73;4.70;;;11.50;1.00;;;;;;5047454;28;20096;-60
2023/03/17 01:23:08;;;;;;;6.93;4.37;;;11.40;1.00;;;;;;5041980;28;20025;-61
2023/03/17 01:25:36;;;;;;;5.30;3.93;;;11.40;1.00;;;;;;5052258;28;20032;-61
2023/03/17 01:28:02;;;;;;;5.67;3.87;;;11.40;1.00;;;;;;5052955;28;20393;-61
2023/03/17 01:30:29;;;;;;;5.63;4.20;;;11.40;1.00;;;;;;5047704;28;20235;-61
2023/03/17 01:32:56;;;;;;;6.00;4.43;;;11.30;1.00;;;;;;5041048;28;20025;-61
2023/03/17 01:35:23;;;;;;;7.10;4.07;;;11.40;1.00;;;;;;5035858;28;20029;-61
2023/03/17 01:37:49;;;;;;;6.83;4.17;;;11.40;1.00;;;;;;5040308;28;20021;-61
2023/03/17 01:40:25;;;;;;;8.17;4.00;;;11.50;1.00;;;;;;5043424;28;20441;-61
2023/03/17 01:43:01;;;;;;;6.03;4.50;;;11.40;1.00;;;;;;5049083;28;20037;-61
2023/03/17 01:46:04;;;;;;;6.00;4.30;;;11.40;1.00;;;;;;5051596;28;20043;-61
2023/03/17 01:48:34;;;;;;;8.30;4.03;;;11.40;1.00;;;;;;5039407;28;20017;-61
2023/03/17 01:51:00;;;;;;;6.80;4.43;;;11.40;1.00;;;;;;5050627;28;20607;-61
2023/03/17 01:53:27;;;;;;;7.60;4.67;;;11.30;1.00;;;;;;5038952;28;20038;-61
2023/03/17 01:55:55;;;;;;;6.00;4.43;;;11.30;1.00;;;;;;5039538;28;20041;-61
2023/03/17 01:58:23;;;;;;;6.57;4.07;;;11.30;1.00;;;;;;5050777;28;20021;-61
2023/03/17 02:00:49;;;;;;;8.47;4.40;;;11.40;1.00;;;;;;5050161;28;20115;-61
2023/03/17 02:03:16;;;;;;;7.27;4.63;;;11.30;1.00;;;;;;5052434;28;20128;-61
2023/03/17 02:05:42;;;;;;;8.60;4.60;;;11.30;1.00;;;;;;5051302;28;20017;-61
2023/03/17 02:08:14;;;;;;;7.37;5.40;;;11.40;1.00;;;;;;5050880;28;20029;-61
2023/03/17 02:10:41;;;;;;;7.87;4.57;;;11.30;1.00;;;;;;5045420;28;20029;-61
2023/03/17 02:13:09;;;;;;;6.63;4.70;;;11.30;1.00;;;;;;5040801;28;20083;-60
2023/03/17 02:15:38;;;;;;;5.43;3.80;;;11.40;1.00;;;;;;5037312;28;20029;-61
2023/03/17 02:18:03;;;;;;;6.57;4.10;;;11.40;1.00;;;;;;5050384;28;20048;-61
2023/03/17 02:20:29;;;;;;;6.27;5.20;;;11.40;1.00;;;;;;5049407;28;20029;-61
2023/03/17 02:22:56;;;;;;;7.10;4.97;;;11.40;1.00;;;;;;5051318;28;20074;-61
2023/03/17 02:25:23;;;;;;;7.57;4.80;;;11.30;1.00;;;;;;5049681;28;20040;-61
2023/03/17 02:27:55;;;;;;;5.97;4.47;;;11.30;1.00;;;;;;5036134;28;20033;-61
2023/03/17 02:30:22;;;;;;;12.03;5.40;;;11.30;1.00;;;;;;5043994;28;20036;-61
2023/03/17 02:32:49;;;;;;;7.90;5.30;;;11.40;1.00;;;;;;5050456;28;20033;-61
2023/03/17 02:35:15;;;;;;;6.73;4.90;;;11.40;1.00;;;;;;5050173;28;20037;-61
2023/03/17 02:37:42;;;;;;;6.43;4.73;;;11.40;1.00;;;;;;5051887;28;20090;-61
2023/03/17 02:40:10;;;;;;;7.17;4.73;;;11.40;1.00;;;;;;5052658;28;20856;-61
2023/03/17 02:42:38;;;;;;;7.63;5.03;;;11.40;1.00;;;;;;5047642;28;20036;-59
2023/03/17 02:45:10;;;;;;;6.30;4.90;;;11.40;1.00;;;;;;5046810;28;20560;-59
2023/03/17 02:47:36;;;;;;;8.80;5.33;;;11.30;1.00;;;;;;5048273;28;20445;-61
2023/03/17 02:50:03;;;;;;;10.57;4.87;;;11.40;1.00;;;;;;5052897;28;20037;-59
2023/03/17 02:52:29;;;;;;;6.60;4.70;;;11.30;1.00;;;;;;5054626;28;20033;-59
2023/03/17 02:54:55;;;;;;;7.80;4.63;;;11.40;1.00;;;;;;5050981;28;20033;-60
2023/03/17 02:57:21;;;;;;;6.70;4.50;;;11.30;1.00;;;;;;5052625;28;20032;-61
2023/03/17 02:59:46;;;;;;;8.93;5.13;;;11.30;1.00;;;;;;5051806;28;20110;-61
2023/03/17 03:02:13;;;;;;;9.97;5.10;;;11.30;1.00;;;;;;5052390;28;20044;-61
2023/03/17 03:04:39;;;;;;;8.03;4.50;;;11.30;1.00;;;;;;5053201;28;20079;-61
2023/03/17 03:07:04;;;;;;;10.93;5.40;;;11.30;1.00;;;;;;5053065;28;20033;-62
2023/03/17 03:09:30;;;;;;;7.80;4.83;;;11.30;1.00;;;;;;5051657;28;20029;-62
2023/03/17 03:11:56;;;;;;;8.90;4.90;;;11.20;1.00;;;;;;5052444;28;20060;-61
2023/03/17 03:14:22;;;;;;;10.30;4.80;;;11.20;1.00;;;;;;5053169;28;20083;-62
2023/03/17 03:16:48;;;;;;;8.07;5.30;;;11.30;1.00;;;;;;5053491;28;20033;-61
2023/03/17 03:19:15;;;;;;;6.87;5.37;;;11.30;1.00;;;;;;5033886;28;20034;-62
2023/03/17 03:21:40;;;;;;;6.13;4.20;;;11.20;1.00;;;;;;5050805;28;20033;-61
2023/03/17 03:24:08;;;;;;;8.27;5.53;;;11.20;1.00;;;;;;5051897;28;20086;-61
2023/03/17 03:26:33;;;;;;;7.07;5.43;;;11.20;1.00;;;;;;5053901;28;20029;-62
2023/03/17 03:28:59;;;;;;;7.83;4.57;;;11.20;1.00;;;;;;5050761;28;20416;-61
2023/03/17 03:31:25;;;;;;;6.20;4.90;;;11.20;1.00;;;;;;5047694;28;20074;-61
2023/03/17 03:33:51;;;;;;;8.70;5.10;;;11.30;1.00;;;;;;5044798;28;20024;-61
2023/03/17 03:36:17;;;;;;;6.77;5.33;;;11.20;1.00;;;;;;5053407;28;20036;-61
2023/03/17 03:38:43;;;;;;;7.30;5.17;;;11.20;1.00;;;;;;5045021;28;20451;-61
2023/03/17 03:41:10;;;;;;;9.10;5.97;;;11.20;1.00;;;;;;5049021;28;20104;-61
2023/03/17 03:43:35;;;;;;;7.50;5.50;;;11.20;1.00;;;;;;5052598;28;20025;-61
2023/03/17 03:46:01;;;;;;;9.73;5.37;;;11.20;1.00;;;;;;5049094;28;20037;-61
2023/03/17 03:48:27;;;;;;;7.37;5.50;;;11.20;1.00;;;;;;5043007;28;20021;-61
2023/03/17 03:50:57;;;;;;;7.87;5.20;;;11.20;1.00;;;;;;5052630;28;20040;-61
2023/03/17 03:53:24;;;;;;;7.93;4.80;;;11.10;1.00;;;;;;5053887;28;20020;-61
2023/03/17 03:55:49;;;;;;;8.33;5.17;;;11.10;1.00;;;;;;5050808;28;20041;-61
2023/03/17 03:58:15;;;;;;;6.37;5.00;;;11.20;1.00;;;;;;5051893;28;20083;-61
2023/03/17 04:00:41;;;;;;;9.47;5.90;;;11.10;1.00;;;;;;5050715;28;20029;-61
2023/03/17 04:03:07;;;;;;;9.47;5.33;;;11.10;1.00;;;;;;5052500;28;20112;-61
2023/03/17 04:05:32;;;;;;;7.43;5.50;;;11.10;1.00;;;;;;5050374;28;20035;-61
2023/03/17 04:07:58;;;;;;;7.20;5.00;;;11.10;1.00;;;;;;5045071;28;20029;-61
2023/03/17 04:10:24;;;;;;;9.00;5.73;;;11.10;1.00;;;;;;5052102;28;20028;-61
2023/03/17 04:12:50;;;;;;;7.30;5.17;;;11.10;1.00;;;;;;5052997;28;20109;-61
2023/03/17 04:15:18;;;;;;;8.77;4.93;;;11.10;1.00;;;;;;5052200;28;20056;-61
2023/03/17 04:17:44;;;;;;;10.67;5.57;;;11.10;1.00;;;;;;5048380;28;20036;-61
2023/03/17 04:20:12;;;;;;;7.83;5.70;;;11.10;1.00;;;;;;5048767;28;20029;-61
2023/03/17 04:22:37;;;;;;;7.00;5.20;;;11.10;1.00;;;;;;5051629;28;20013;-61
2023/03/17 04:25:03;;;;;;;6.90;5.30;;;11.00;1.00;;;;;;5048814;28;20613;-61
2023/03/17 04:27:29;;;;;;;6.83;5.10;;;11.00;1.00;;;;;;5038872;28;20166;-61
2023/03/17 04:29:55;;;;;;;6.20;4.90;;;11.00;1.00;;;;;;5051382;28;20852;-61
2023/03/17 04:32:21;;;;;;;8.17;5.57;;;11.00;1.00;;;;;;5051269;28;20037;-61
2023/03/17 04:34:46;;;;;;;6.97;5.13;;;11.00;1.00;;;;;;5050694;28;20037;-61
2023/03/17 04:37:12;;;;;;;9.00;5.63;;;10.90;1.00;;;;;;5051219;28;20163;-61
2023/03/17 04:39:38;;;;;;;6.43;4.87;;;10.90;1.00;;;;;;5045202;28;20095;-61
2023/03/17 04:42:05;;;;;;;8.77;5.07;;;10.90;1.00;;;;;;5032745;28;20073;-61
2023/03/17 04:44:30;;;;;;;8.03;5.77;;;11.00;1.00;;;;;;5051515;28;20107;-61
2023/03/17 04:46:56;;;;;;;6.97;5.60;;;10.90;1.00;;;;;;5053435;28;20033;-61
2023/03/17 04:49:22;;;;;;;9.90;5.40;;;10.90;1.00;;;;;;5044945;28;20052;-61
2023/03/17 04:51:48;;;;;;;9.57;5.70;;;10.90;1.00;;;;;;5053603;28;20111;-61
2023/03/17 04:54:14;;;;;;;9.73;5.43;;;11.00;1.00;;;;;;5051463;28;20040;-61
2023/03/17 04:56:39;;;;;;;8.90;5.43;;;11.00;1.00;;;;;;5044325;28;20072;-61
2023/03/17 04:59:05;;;;;;;8.53;5.60;;;10.90;1.00;;;;;;5044864;28;20136;-61
2023/03/17 05:01:31;;;;;;;7.83;5.30;;;10.90;1.00;;;;;;5051315;28;20043;-61
2023/03/17 05:03:56;;;;;;;8.43;5.07;;;10.90;1.00;;;;;;5053097;28;20524;-61
2023/03/17 05:06:22;;;;;;;7.83;5.07;;;10.90;1.00;;;;;;5038509;28;20075;-62
2023/03/17 05:08:48;;;;;;;7.47;5.20;;;10.90;1.00;;;;;;5035422;28;20112;-61
2023/03/17 05:11:14;;;;;;;7.17;5.40;;;10.90;1.00;;;;;;5041734;28;20040;-61
2023/03/17 05:14:07;;;;;;;7.90;5.33;;;10.90;1.00;;;;;;5050403;28;20426;-61
2023/03/17 05:16:34;;;;;;;9.50;5.80;;;10.90;1.00;;;;;;5049975;28;20045;-61
2023/03/17 05:19:00;;;;;;;7.07;5.17;;;10.80;1.00;;;;;;5040021;28;20017;-61
2023/03/17 05:21:26;;;;;;;8.97;5.10;;;10.90;1.00;;;;;;5040752;28;20057;-61
2023/03/17 05:23:52;;;;;;;6.13;5.47;;;10.90;1.00;;;;;;5051506;28;20524;-61
2023/03/17 05:26:18;;;;;;;7.57;4.63;;;10.90;1.00;;;;;;5051959;28;20104;-61
2023/03/17 05:28:44;;;;;;;9.03;5.60;;;10.90;1.00;;;;;;5052797;28;20056;-61
2023/03/17 05:31:10;;;;;;;6.13;5.30;;;10.90;1.00;;;;;;5049223;28;20057;-61
2023/03/17 05:33:36;;;;;;;6.60;5.03;;;10.90;1.00;;;;;;5050187;28;20540;-60
2023/03/17 05:36:02;;;;;;;7.63;5.17;;;10.80;1.00;;;;;;5043751;28;20128;-61
2023/03/17 05:38:28;;;;;;;8.43;5.33;;;10.80;1.00;;;;;;5038098;28;20029;-61
2023/03/17 05:40:54;;;;;;;10.93;5.80;;;10.90;1.00;;;;;;5051191;28;20032;-61
2023/03/17 05:43:20;;;;;;;17.37;6.83;;;10.80;1.00;;;;;;5039813;28;20029;-61
2023/03/17 05:45:46;;;;;;;12.83;5.50;;;10.80;1.00;;;;;;5049517;28;20056;-61
2023/03/17 05:48:38;;;;;;;10.33;4.90;;;10.80;1.00;;;;;;5043137;28;20033;-61
2023/03/17 05:51:04;;;;;;;9.97;4.50;;;10.80;1.00;;;;;;5043126;28;20031;-61
2023/03/17 05:53:30;;;;;;;7.20;4.93;;;10.90;1.00;;;;;;5043364;28;20532;-61
2023/03/17 05:55:55;;;;;;;11.27;5.33;;;10.90;1.00;;;;;;5052722;28;20398;-61
2023/03/17 05:58:21;;;;;;;7.90;5.17;;;10.80;1.00;;;;;;5051686;28;20025;-61
2023/03/17 06:00:47;;;;;;;9.50;5.37;;;10.90;1.00;;;;;;5052524;28;20544;-62
2023/03/17 06:03:13;;;;;;;8.80;5.07;;;10.90;1.00;;;;;;5050467;28;20029;-62
2023/03/17 06:05:39;;;;;;;10.07;5.00;;;10.90;1.00;;;;;;5050771;28;20044;-62
2023/03/17 06:08:05;;;;;;;9.90;5.60;;;10.90;1.00;;;;;;5052464;28;20021;-61
2023/03/17 06:10:31;;;;;;;8.97;5.13;;;10.90;1.00;;;;;;5054461;28;20100;-62
2023/03/17 06:12:57;;;;;;;8.50;5.40;;;10.90;1.00;;;;;;5056120;28;20021;-60
2023/03/17 06:15:24;;;;;;;9.43;5.60;;;10.90;1.00;;;;;;5054999;28;20125;-61
2023/03/17 06:17:50;;;;;;;7.03;5.37;;;10.90;1.00;;;;;;5056137;28;20021;-61
2023/03/17 06:20:16;;;;;;;10.10;5.20;;;11.00;1.00;;;;;;5053884;28;20078;-61
2023/03/17 06:22:42;;;;;;;7.70;5.60;;;11.00;1.00;;;;;;5042804;28;20029;-62
2023/03/17 06:25:09;;;;;;;7.13;4.93;;;11.00;1.00;;;;;;5053064;28;20021;-61
2023/03/17 06:27:36;;;;;;;8.97;4.77;;;11.00;1.00;;;;;;5056046;28;20075;-61
2023/03/17 06:30:03;;;;;;;10.90;5.50;;;11.00;1.00;;;;;;5052510;28;20032;-62
2023/03/17 06:32:29;;;;;;;7.10;4.97;;;11.00;1.00;;;;;;5054890;28;20025;-62
2023/03/17 06:34:55;;;;;;;7.93;5.57;;;11.00;1.00;;;;;;5053292;28;20115;-61
2023/03/17 06:37:20;;;;;;;9.07;5.20;;;11.10;1.00;;;;;;5055762;28;20044;-62
2023/03/17 06:39:47;;;;;;;9.40;5.63;;;11.10;1.00;;;;;;5053108;28;20033;-61
2023/03/17 06:42:12;;;;;;;10.20;6.03;;;11.10;1.00;;;;;;5048675;28;20074;-62
2023/03/17 06:44:38;;;;;;;9.33;5.00;;;11.10;1.00;;;;;;5053462;28;20108;-61
2023/03/17 06:47:04;;;;;;;6.17;4.80;;;11.20;1.00;;;;;;5041906;28;20032;-61
2023/03/17 06:49:30;;;;;;;7.83;4.67;;;11.10;1.00;;;;;;5054303;28;20114;-61
2023/03/17 06:51:56;;;;;;;10.00;6.97;;;11.20;1.00;;;;;;5055411;28;20104;-61
2023/03/17 06:54:24;;;;;;;8.23;6.07;;;11.20;1.00;;;;;;5054740;28;20104;-61
2023/03/17 06:56:50;;;;;;;7.20;4.77;;;11.20;1.00;;;;;;5054205;28;20029;-61
2023/03/17 06:59:17;;;;;;;9.00;4.80;;;11.20;1.00;;;;;;5040644;28;20018;-61
2023/03/17 07:01:44;;;;;;;7.30;5.40;;;11.30;1.00;;;;;;5046981;28;20096;-62
2023/03/17 07:04:09;;;;;;;6.83;4.73;;;11.30;1.00;;;;;;5050695;28;20065;-61
2023/03/17 07:06:35;;;;;;;7.83;4.47;;;11.30;1.00;;;;;;5045307;28;20060;-61
2023/03/17 07:09:02;;;;;;;7.50;5.17;;;11.30;1.00;;;;;;5052762;28;20033;-61
2023/03/17 07:11:29;;;;;;;13.70;4.87;;;11.30;1.00;;;;;;5054530;28;20029;-62
2023/03/17 07:13:55;;;;;;;8.57;4.60;;;11.30;1.00;;;;;;5054202;28;20126;-62
2023/03/17 07:16:21;;;;;;;5.77;4.50;;;11.40;1.00;;;;;;5043974;28;20036;-61
2023/03/17 07:18:47;;;;;;;9.63;4.57;;;11.40;1.00;;;;;;5055040;28;20036;-61
2023/03/17 07:21:12;;;;;;;7.57;4.80;;;11.40;1.00;;;;;;5034048;28;20036;-61
2023/03/17 07:23:38;;;;;;;6.43;4.43;;;11.40;1.00;;;;;;5043624;28;20031;-61
2023/03/17 07:26:04;;;;;;;6.57;4.23;;;11.40;1.00;;;;;;5051379;28;20470;-62
2023/03/17 07:28:29;;;;;;;9.17;4.33;;;11.50;1.00;;;;;;5052520;28;20390;-61
2023/03/17 07:30:56;;;;;;;8.43;3.97;;;11.50;1.00;;;;;;5054798;28;20109;-61
2023/03/17 07:33:23;;;;;;;5.97;3.83;;;11.50;1.00;;;;;;5055053;28;20033;-61
2023/03/17 07:35:50;;;;;;;11.07;3.85;;;11.50;1.00;;;;;;5044764;28;20090;-61
2023/03/17 07:38:17;;;;;;;7.50;3.57;;;11.50;1.00;;;;;;5045603;28;20029;-62
2023/03/17 07:40:46;;;;;;;7.38;3.72;;;11.50;1.00;;;;;;5049075;28;20041;-61
2023/03/17 07:43:12;;;;;;;5.95;4.00;;;11.60;1.00;;;;;;5054555;28;20066;-61
2023/03/17 07:45:38;;;;;;;8.43;3.77;;;11.60;1.00;;;;;;5048366;28;20505;-61
2023/03/17 07:48:05;;;;;;;9.00;3.38;;;11.60;1.00;;;;;;5053260;28;20028;-61
2023/03/17 07:50:35;;;;;;;7.15;3.33;;;11.60;1.00;;;;;;5053445;28;20028;-61
2023/03/17 07:53:02;;;;;;;5.60;2.90;;;11.60;1.00;;;;;;5054508;28;20037;-61
2023/03/17 07:55:28;;;;;;;10.40;4.43;;;11.70;1.00;;;;;;5053240;28;20132;-61
2023/03/17 07:57:54;;;;;;;7.50;4.17;;;11.70;1.00;;;;;;5052732;28;20112;-61
2023/03/17 08:00:22;;;;;;;7.10;3.65;;;11.80;1.00;;;;;;5049408;28;20073;-68
2023/03/17 08:02:49;;;;;;;5.45;4.13;;;11.70;1.00;;;;;;5047934;28;20045;-61
2023/03/17 08:05:15;;;;;;;8.52;4.05;;;11.80;1.00;;;;;;5052851;28;20565;-62
2023/03/17 08:07:41;;;;;;;9.60;4.73;;;11.80;1.00;;;;;;5047603;28;20095;-62
2023/03/17 08:10:08;;;;;;;7.80;4.67;;;11.80;1.00;;;;;;5051855;28;20033;-64
2023/03/17 08:12:35;;;;;;;6.68;4.28;;;11.90;1.00;;;;;;5049387;28;20033;-63
2023/03/17 08:15:01;;;;;;;3.90;2.40;;;11.90;1.00;;;;;;5045161;28;20085;-64
2023/03/17 08:17:26;;;;;;;4.32;2.55;;;11.90;1.00;;;;;;5044743;28;20067;-64
2023/03/17 08:19:55;;;;;;;4.30;3.00;;;11.90;1.00;;;;;;5048259;28;20127;-61
2023/03/17 08:22:22;;;;;;;4.40;2.60;;;12.00;1.00;;;;;;5041976;28;20490;-67
2023/03/17 08:24:48;;;;;;;5.35;3.05;;;12.00;1.00;;;;;;5043705;28;20022;-64
2023/03/17 08:27:15;;;;;;;5.15;3.08;;;12.00;1.00;;;;;;5052023;28;20033;-59
2023/03/17 08:29:41;;;;;;;6.93;2.78;;;12.00;1.00;;;;;;5057119;28;20051;-64
2023/03/17 08:32:07;;;;;;;5.15;3.05;;;12.10;1.00;;;;;;5049714;28;20052;-69
2023/03/17 08:34:33;;;;;;;6.95;4.00;;;12.10;1.00;;;;;;5046079;28;20049;-52
2023/03/17 08:37:00;;;;;;;7.88;3.22;;;12.20;1.00;;;;;;5043575;28;20071;-52
2023/03/17 08:39:26;;;;;;;7.60;2.88;;;12.20;1.00;;;;;;5050270;28;20017;-59
2023/03/17 08:41:52;;;;;;;3.40;2.20;;;12.20;1.00;;;;;;5053101;28;20024;-60
2023/03/17 08:44:19;;;;;;;5.68;2.42;;;12.10;1.00;;;;;;5049255;28;20074;-65
2023/03/17 08:46:46;;;;;;;5.78;3.20;;;12.20;1.00;;;;;;5052413;28;20033;-60
2023/03/17 08:49:12;;;;;;;4.22;2.67;;;12.20;1.00;;;;;;5055457;28;20101;-62
2023/03/17 08:51:38;;;;;;;3.65;2.65;;;12.20;1.00;;;;;;5050743;28;20143;-66
2023/03/17 08:54:05;;;;;;;7.65;3.50;;;12.30;1.00;;;;;;5051850;28;20048;-64
2023/03/17 08:56:31;;;;;;;8.48;3.90;;;12.30;1.00;;;;;;5051035;28;20029;-64
2023/03/17 08:58:58;;;;;;;10.40;3.17;;;12.30;1.00;;;;;;5052234;28;20032;-67
2023/03/17 09:01:23;;;;;;;7.75;4.28;;;12.30;1.00;;;;;;5052337;28;20021;-64
2023/03/17 09:03:52;;;;;;;6.40;3.83;;;12.40;1.00;;;;;;5056458;28;20466;-62
2023/03/17 09:06:17;;;;;;;7.63;4.07;;;12.40;1.00;;;;;;5042495;28;20021;-65
2023/03/17 09:08:46;;;;;;;6.65;4.40;;;12.50;1.00;;;;;;5051607;28;20159;-61
2023/03/17 09:11:16;;;;;;;6.95;4.93;;;12.50;1.00;;;;;;5042649;28;20018;-62
2023/03/17 09:13:43;;;;;;;12.20;7.50;;;12.50;1.00;;;;;;5037476;28;20094;-61
2023/03/17 09:16:09;;;;;;;7.95;4.25;;;12.70;1.00;;;;;;5043753;28;20041;-63
2023/03/17 09:18:35;;;;;;;5.93;3.50;;;12.70;1.00;;;;;;5051178;28;20509;-72
2023/03/17 09:21:03;;;;;;;6.97;3.75;;;12.70;1.00;;;;;;5038031;28;20112;-63
2023/03/17 09:23:30;;;;;;;6.68;3.40;;;12.80;1.00;;;;;;5045084;28;20025;-63
2023/03/17 09:25:56;;;;;;;7.63;3.75;;;12.80;1.00;;;;;;5044292;28;20082;-63
2023/03/17 09:28:22;;;;;;;6.30;3.63;;;12.90;1.00;;;;;;5051920;28;20032;-67
2023/03/17 09:30:48;;;;;;;5.75;3.58;;;12.90;1.00;;;;;;5042805;28;20032;-67
2023/03/17 09:33:15;;;;;;;7.18;3.22;;;13.00;1.00;;;;;;5046178;28;20131;-72
2023/03/17 09:35:40;;;;;;;8.63;4.00;;;13.00;1.00;;;;;;5045367;28;20033;-63
2023/03/17 09:38:09;;;;;;;5.72;3.58;;;13.00;1.00;;;;;;5043471;28;20029;-60
2023/03/17 09:40:56;;;;;;;6.32;3.35;;;13.10;1.00;;;;;;5045512;28;20112;-60
2023/03/17 09:43:55;;;;;;;7.63;4.15;;;13.10;1.00;;;;;;5045062;28;20474;-61
2023/03/17 09:46:26;;;;;;;5.90;4.45;;;13.20;1.00;;;;;;5051753;28;20550;-59
2023/03/17 09:49:00;;;;;;;9.88;5.45;;;13.20;1.00;;;;;;5050328;28;20028;-61
2023/03/17 09:51:28;;;;;;;9.50;5.22;;;13.20;1.00;;;;;;5047206;28;20025;-62
2023/03/17 09:53:59;;;;;;;6.65;4.07;;;13.30;1.00;;;;;;5054960;28;20529;-63
2023/03/17 09:56:27;;;;;;;4.70;3.28;;;13.30;1.00;;;;;;5053219;28;20047;-68
2023/03/17 09:58:58;;;;;;;5.53;3.78;;;13.30;1.00;;;;;;5054408;28;20487;-62
2023/03/17 10:01:24;;;;;;;7.65;3.92;;;13.40;1.00;;;;;;5048907;28;20090;-62
2023/03/17 10:03:50;;;;;;;7.43;4.10;;;13.40;1.00;;;;;;5043756;28;20025;-62
2023/03/17 10:06:35;;;;;;;8.23;3.92;;;13.50;1.00;;;;;;5044479;28;20053;-64
2023/03/17 10:09:15;;;;;;;6.95;3.80;;;13.50;1.00;;;;;;5038316;28;20111;-61
2023/03/17 10:11:44;;;;;;;8.48;6.78;;;13.60;1.00;;;;;;5038219;28;20029;-69
2023/03/17 10:14:13;;;;;;;8.88;4.40;;;13.60;1.00;;;;;;5040391;28;20064;-77
2023/03/17 10:17:11;;;;;;;6.10;3.60;;;13.70;1.00;;;;;;5039579;28;20053;-70
2023/03/17 10:19:44;;;;;;;7.55;4.25;;;13.70;1.00;;;;;;5038872;28;20474;-62
2023/03/17 10:22:22;;;;;;;8.63;5.18;;;13.70;1.00;;;;;;5053532;28;20040;-62
2023/03/17 10:24:55;;;;;;;9.05;4.40;;;13.80;1.00;;;;;;5051795;28;20370;-62
2023/03/17 10:27:21;;;;;;;5.97;3.80;;;13.90;1.00;;;;;;5051293;28;20029;-62
2023/03/17 10:29:47;;;;;;;8.07;4.15;;;14.00;1.00;;;;;;5054690;28;20025;-60
2023/03/17 10:32:13;;;;;;;6.38;4.35;;;14.00;1.00;;;;;;5051369;28;20044;-65
2023/03/17 10:34:40;;;;;;;8.45;4.30;;;14.10;1.00;;;;;;5052419;28;20132;-72
2023/03/17 10:37:28;;;;;;;8.10;3.78;;;14.20;1.00;;;;;;5055900;28;20079;-68
2023/03/17 10:39:56;;;;;;;7.22;4.28;;;14.20;1.00;;;;;;5051777;28;20032;-61
2023/03/17 10:42:23;;;;;;;9.82;5.13;;;14.20;1.00;;;;;;5041651;28;20035;-61
2023/03/17 10:44:55;;;;;;;7.72;4.40;;;14.30;1.00;;;;;;5053422;28;20040;-57
2023/03/17 10:47:30;;;;;;;6.53;5.15;;;14.30;1.00;;;;;;5054260;28;20029;-59
2023/03/17 10:50:01;;;;;;;8.48;4.63;;;14.40;1.00;;;;;;5053271;28;20028;-60
2023/03/17 10:52:30;;;;;;;7.57;4.43;;;14.40;1.00;;;;;;5055804;28;20100;-62
2023/03/17 10:55:03;;;;;;;8.88;4.63;;;14.60;1.00;;;;;;5052780;28;20033;-62
2023/03/17 10:57:28;;;;;;;10.02;4.80;;;14.70;1.00;;;;;;5055566;28;20103;-63
2023/03/17 10:59:55;;;;;;;8.95;5.35;;;14.70;1.00;;;;;;5046842;28;20155;-59
2023/03/17 11:02:24;;;;;;;11.25;4.90;;;14.70;1.00;;;;;;5041349;28;20493;-66
2023/03/17 11:04:54;;;;;;;5.93;5.05;;;14.90;1.00;;;;;;5053577;28;20501;-72
2023/03/17 11:07:28;;;;;;;8.02;4.97;;;14.90;1.00;;;;;;5050952;28;20035;-72
2023/03/17 11:09:59;;;;;;;7.47;4.88;;;14.90;1.00;;;;;;5055430;28;20099;-74
2023/03/17 11:12:28;;;;;;;8.93;5.28;;;14.90;1.00;;;;;;5056155;28;20025;-74
2023/03/17 11:15:05;;;;;;;7.15;4.22;;;15.00;1.00;;;;;;5053019;28;20498;-81
2023/03/17 11:17:49;;;;;;;8.27;4.55;;;15.20;1.00;;;;;;5050362;28;20035;-69
2023/03/17 11:20:14;;;;;;;7.28;4.82;;;15.20;1.00;;;;;;5052739;28;20025;-61
2023/03/17 11:22:45;;;;;;;8.70;5.15;;;15.40;1.00;;;;;;5045574;28;20084;-62
2023/03/17 11:25:22;;;;;;;7.05;5.60;;;15.40;1.00;;;;;;5044291;28;20017;-62
2023/03/17 11:27:51;;;;;;;9.90;8.02;;;15.50;1.00;;;;;;5056096;28;20029;-51
2023/03/17 11:30:38;;;;;;;7.03;5.45;;;15.50;1.00;;;;;;5052836;28;20036;-48
2023/03/17 11:33:41;;;;;;;7.60;5.72;;;15.60;1.00;;;;;;5050424;28;20090;-48
2023/03/17 11:36:25;;;;;;;8.38;5.47;;;15.70;1.00;;;;;;5046871;28;20033;-47
2023/03/17 11:38:59;;;;;;;6.70;4.60;;;15.60;1.00;;;;;;5048116;28;20029;-50
2023/03/17 11:41:55;;;;;;;7.05;5.07;;;15.80;1.00;;;;;;5048082;28;20086;-51
2023/03/17 11:44:55;;;;;;;8.52;6.20;;;15.80;1.00;;;;;;5046705;28;20017;-47
2023/03/17 11:47:40;;;;;;;10.82;5.70;;;16.00;1.00;;;;;;5047049;28;20040;-50
2023/03/17 11:50:12;;;;;;;9.20;5.60;;;16.20;1.00;;;;;;5041695;28;20107;-52
2023/03/17 11:52:55;;;;;;;9.93;5.55;;;16.30;1.00;;;;;;5050103;28;20483;-59
2023/03/17 11:55:36;;;;;;;9.25;5.47;;;16.30;1.00;;;;;;5050572;28;20044;-59
2023/03/17 11:58:09;;;;;;;8.55;6.10;;;16.40;1.00;;;;;;5053047;28;20032;-58
2023/03/17 12:00:49;;;;;;;9.80;6.00;;;16.50;1.00;;;;;;5052458;28;20372;-57
2023/03/17 12:03:26;;;;;;;9.65;6.88;;;16.60;1.00;;;;;;5048379;28;20025;-58
2023/03/17 12:05:57;;;;;;;9.05;6.63;;;16.70;1.00;;;;;;5044754;28;20063;-60
2023/03/17 12:08:46;;;;;;;7.85;5.90;;;16.70;1.00;;;;;;5045901;28;20070;-59
2023/03/17 12:11:28;;;;;;;8.48;5.68;;;16.70;1.00;;;;;;5055100;28;20534;-59
2023/03/17 12:13:58;;;;;;;9.02;6.63;;;16.90;1.00;;;;;;5055796;28;20124;-60
2023/03/17 12:16:34;;;;;;;8.80;5.38;;;16.90;1.00;;;;;;5051568;28;20029;-59
2023/03/17 12:19:20;;;;;;;8.50;6.32;;;16.90;1.00;;;;;;5039326;28;20025;-61
2023/03/17 12:22:01;;;;;;;8.80;6.30;;;16.90;1.00;;;;;;5051437;28;20119;-59
2023/03/17 12:24:39;;;;;;;11.18;6.47;;;17.10;1.00;;;;;;5053412;28;20067;-59
2023/03/17 12:27:09;;;;;;;9.55;6.68;;;17.20;1.00;;;;;;5050205;28;20068;-59
2023/03/17 12:29:50;;;;;;;7.97;6.70;;;17.20;1.00;;;;;;5055606;28;20468;-58
2023/03/17 12:32:40;;;;;;;7.90;5.97;;;17.30;1.00;;;;;;5055599;28;20489;-60
2023/03/17 12:35:21;;;;;;;8.82;5.90;;;17.40;1.00;;;;;;5047010;28;20406;-58
2023/03/17 12:37:48;;;;;;;6.20;5.57;;;17.50;1.00;;;;;;5053338;28;20021;-59
2023/03/17 12:40:21;;;;;;;9.10;6.60;;;17.60;1.00;;;;;;5053343;28;20501;-58
2023/03/17 12:43:19;;;;;;;10.70;7.30;;;17.80;1.00;;;;;;5051466;28;20029;-58
2023/03/17 12:46:18;;;;;;;10.02;7.05;;;17.90;1.00;;;;;;5052264;28;20025;-58
2023/03/17 12:48:56;;;;;;;10.70;6.82;;;18.20;1.00;;;;;;5046754;28;20037;-57
2023/03/17 12:51:43;;;;;;;11.05;6.70;;;18.60;1.00;;;;;;5045637;28;20485;-58
2023/03/17 12:54:27;;;;;;;10.07;6.78;;;19.50;1.00;;;;;;5051487;28;20025;-58
2023/03/17 12:57:02;;;;;;;11.23;6.85;;;22.30;99.90;;;;;;5053740;28;20032;-59
2023/03/17 12:59:30;;;;;;;8.48;6.57;;;24.90;99.90;;;;;;5051586;28;20031;-59
2023/03/17 13:02:14;;;;;;;9.55;6.82;;;25.80;99.90;;;;;;5055736;28;20098;-59
2023/03/17 13:05:00;;;;;;;8.88;7.18;;;26.80;99.90;;;;;;5050876;28;20068;-58
2023/03/17 13:07:36;;;;;;;11.73;7.65;;;27.70;99.90;;;;;;5049818;28;20025;-59